Time;durP1;ratioP1;P1;durP2;ratioP2;P2;SDS_P1;SDS_P2;PMS_P1;PMS_P2;Temp;Humidity;BMP_temperature;BMP_pressure;BME280_temperature;BME280_humidity;BME280_pressure;Samples;Min_cycle;Max_cycle;Signal;HPM_P1;HPM_P2
2023/08/28 00:01:43;;;;;;;0.00;0.00;;;;;;;13.16;100.00;100169.75;4982462;28;20435;-78
2023/08/28 00:04:09;;;;;;;0.00;0.00;;;;;;;13.30;100.00;100176.16;4992076;28;20022;-76
2023/08/28 00:06:34;;;;;;;0.00;0.00;;;;;;;13.29;100.00;100149.84;4972610;28;20053;-76
2023/08/28 00:09:02;;;;;;;0.00;0.00;;;;;;;13.46;100.00;100184.28;5012786;28;20072;-79
2023/08/28 00:11:28;;;;;;;0.00;0.00;;;;;;;13.34;100.00;100187.41;5030492;28;20033;-78
2023/08/28 00:13:53;;;;;;;0.00;0.00;;;;;;;13.24;100.00;100182.81;5007542;28;20407;-79
2023/08/28 00:16:23;;;;;;;0.00;0.00;;;;;;;12.96;100.00;100160.56;4999964;28;20034;-78
2023/08/28 00:18:49;;;;;;;0.00;0.00;;;;;;;13.02;100.00;100181.38;5000307;28;20045;-77
2023/08/28 00:21:14;;;;;;;0.00;0.00;;;;;;;12.93;100.00;100174.88;4980027;28;20471;-76
2023/08/28 00:23:40;;;;;;;0.00;0.00;;;;;;;12.85;100.00;100170.84;5000809;28;20154;-78
2023/08/28 00:26:13;;;;;;;0.00;0.00;;;;;;;12.93;100.00;100183.13;4975460;28;20028;-76
2023/08/28 00:28:38;;;;;;;0.00;0.00;;;;;;;12.83;100.00;100156.56;4979701;28;20462;-78
2023/08/28 00:31:06;;;;;;;0.00;0.00;;;;;;;12.84;100.00;100160.16;5002770;28;20117;-78
2023/08/28 00:33:34;;;;;;;0.00;0.00;;;;;;;12.96;100.00;100168.81;4979416;28;20383;-78
2023/08/28 00:36:12;;;;;;;0.00;0.00;;;;;;;12.77;100.00;100141.25;5005454;28;20040;-77
2023/08/28 00:38:37;;;;;;;0.00;0.00;;;;;;;12.72;100.00;100133.91;5018790;28;20041;-77
2023/08/28 00:41:13;;;;;;;0.00;0.00;;;;;;;12.69;100.00;100137.22;5001073;28;20030;-77
2023/08/28 00:43:38;;;;;;;0.00;0.00;;;;;;;12.69;100.00;100145.44;5006077;28;20033;-78
2023/08/28 00:46:14;;;;;;;0.00;0.00;;;;;;;12.73;100.00;100157.50;5006984;28;20442;-79
2023/08/28 00:48:40;;;;;;;0.00;0.00;;;;;;;12.67;100.00;100164.09;4997093;28;20056;-78
2023/08/28 00:51:08;;;;;;;0.00;0.00;;;;;;;12.52;100.00;100145.03;4995244;28;20467;-78
2023/08/28 00:53:36;;;;;;;0.00;0.00;;;;;;;12.49;100.00;100151.09;4999931;28;20365;-79
2023/08/28 00:56:11;;;;;;;0.00;0.00;;;;;;;12.37;100.00;100149.53;5022998;28;20025;-78
2023/08/28 00:58:37;;;;;;;0.00;0.00;;;;;;;12.37;100.00;100159.69;5005851;28;20076;-78
2023/08/28 01:01:10;;;;;;;0.00;0.00;;;;;;;12.27;100.00;100143.31;4976759;28;20025;-79
2023/08/28 01:03:38;;;;;;;0.00;0.00;;;;;;;12.29;100.00;100146.56;4992999;28;20096;-78
2023/08/28 01:06:45;;;;;;;0.00;0.00;;;;;;;12.34;100.00;100166.53;4982015;28;20075;-78
2023/08/28 01:09:27;;;;;;;0.00;0.00;;;;;;;12.25;100.00;100159.19;4991787;28;20488;-79
2023/08/28 01:11:58;;;;;;;0.00;0.00;;;;;;;12.20;100.00;100163.59;5010739;28;20026;-76
2023/08/28 01:14:28;;;;;;;0.00;0.00;;;;;;;12.03;100.00;100141.22;5005906;28;20041;-75
2023/08/28 01:17:06;;;;;;;0.00;0.00;;;;;;;12.00;100.00;100145.38;5005000;28;20037;-75
2023/08/28 01:19:35;;;;;;;0.00;0.00;;;;;;;12.02;100.00;100151.38;4998956;28;20491;-75
2023/08/28 01:22:30;;;;;;;0.00;0.00;;;;;;;12.12;100.00;100164.22;5015213;28;20116;-75
2023/08/28 01:25:12;;;;;;;;;;;;;;;12.19;100.00;100163.88;5019217;28;20052;-76
2023/08/28 01:27:44;;;;;;;0.00;0.00;;;;;;;12.17;100.00;100135.94;5006471;28;19949;-75
2023/08/28 01:30:17;;;;;;;0.00;0.00;;;;;;;12.50;100.00;100163.69;5006905;28;20018;-78
2023/08/28 01:32:45;;;;;;;0.00;0.00;;;;;;;12.63;100.00;100163.06;4989054;28;20084;-78
2023/08/28 01:35:38;;;;;;;0.00;0.00;;;;;;;12.69;100.00;100167.41;4999549;28;20060;-78
2023/08/28 01:38:25;;;;;;;0.00;0.00;;;;;;;12.69;100.00;100167.41;5004669;28;20029;-78
2023/08/28 01:40:58;;;;;;;0.00;0.00;;;;;;;12.63;100.00;100165.81;5000143;28;20018;-81
2023/08/28 01:43:28;;;;;;;0.00;0.00;;;;;;;12.62;100.00;100155.94;5003546;28;20029;-78
2023/08/28 01:45:58;;;;;;;0.00;0.00;;;;;;;12.33;100.00;100110.06;5013131;28;20049;-79
2023/08/28 01:48:26;;;;;;;0.00;0.00;;;;;;;12.53;100.00;100146.69;4996782;28;20118;-79
2023/08/28 01:51:02;;;;;;;0.00;0.00;;;;;;;12.64;100.00;100161.94;5003345;28;20034;-78
2023/08/28 01:53:27;;;;;;;0.00;0.00;;;;;;;12.61;100.00;100157.03;5010580;28;20120;-78
2023/08/28 01:56:08;;;;;;;0.00;0.00;;;;;;;12.52;100.00;100140.34;5004099;28;20105;-76
2023/08/28 01:58:42;;;;;;;0.00;0.00;;;;;;;12.33;100.00;100123.78;4993990;28;20020;-78
2023/08/28 02:01:10;;;;;;;0.00;0.00;;;;;;;12.45;100.00;100139.06;4998685;28;20021;-78
2023/08/28 02:03:38;;;;;;;0.00;0.00;;;;;;;12.47;100.00;100147.81;5003652;28;20484;-78
2023/08/28 02:06:11;;;;;;;0.00;0.00;;;;;;;12.49;100.00;100145.59;5006692;28;20034;-77
2023/08/28 02:08:39;;;;;;;0.00;0.00;;;;;;;12.54;100.00;100148.31;5000774;28;20025;-78
2023/08/28 02:11:05;;;;;;;0.00;0.00;;;;;;;12.72;100.00;100171.50;5005012;28;20033;-79
2023/08/28 02:13:30;;;;;;;0.00;0.00;;;;;;;12.63;100.00;100152.09;5006944;28;20108;-77
2023/08/28 02:16:11;;;;;;;0.00;0.00;;;;;;;12.68;100.00;100149.28;4985006;28;20167;-78
2023/08/28 02:18:36;;;;;;;0.00;0.00;;;;;;;12.83;100.00;100156.56;4983660;28;20040;-78
2023/08/28 02:21:03;;;;;;;0.00;0.00;;;;;;;12.82;100.00;100149.47;4995363;28;20435;-77
2023/08/28 02:23:29;;;;;;;0.00;0.00;;;;;;;12.74;100.00;100136.34;5008551;28;20037;-77
2023/08/28 02:25:57;;;;;;;0.00;0.00;;;;;;;12.80;100.00;100128.91;5005693;28;20017;-78
2023/08/28 02:28:22;;;;;;;0.00;0.00;;;;;;;12.95;100.00;100147.94;4986398;28;20025;-79
2023/08/28 02:30:48;;;;;;;0.00;0.00;;;;;;;12.87;100.00;100140.38;4990225;28;20507;-78
2023/08/28 02:33:14;;;;;;;0.00;0.00;;;;;;;13.00;100.00;100150.66;4999030;28;20029;-79
2023/08/28 02:35:39;;;;;;;0.00;0.00;;;;;;;12.99;100.00;100143.53;5009290;28;20033;-79
2023/08/28 02:38:12;;;;;;;0.00;0.00;;;;;;;13.04;100.00;100140.75;4990459;28;20025;-79
2023/08/28 02:40:39;;;;;;;0.00;0.00;;;;;;;13.20;100.00;100160.63;5027760;28;20017;-78
2023/08/28 02:43:05;;;;;;;0.00;0.00;;;;;;;13.19;100.00;100160.94;5023182;28;20026;-80
2023/08/28 02:45:36;;;;;;;0.00;0.00;;;;;;;13.21;100.00;100161.44;4987151;28;20032;-78
2023/08/28 02:48:11;;;;;;;0.00;0.00;;;;;;;13.14;100.00;100145.31;5016598;28;20084;-79
2023/08/28 02:50:37;;;;;;;0.00;0.00;;;;;;;13.15;100.00;100141.44;5001265;28;20033;-79
2023/08/28 02:53:03;;;;;;;0.00;0.00;;;;;;;13.31;100.00;100180.56;4992704;28;20380;-78
2023/08/28 02:56:10;;;;;;;0.00;0.00;;;;;;;13.04;100.00;100135.25;5002685;28;20027;-77
2023/08/28 02:58:43;;;;;;;0.00;0.00;;;;;;;13.10;100.00;100161.53;4982188;28;20045;-79
2023/08/28 03:01:11;;;;;;;0.00;0.00;;;;;;;13.09;100.00;100165.38;5008167;28;20026;-78
2023/08/28 03:03:44;;;;;;;0.00;0.00;;;;;;;13.01;100.00;100157.78;4997321;28;20058;-79
2023/08/28 03:06:13;;;;;;;0.00;0.00;;;;;;;13.12;100.00;100174.16;5005382;28;20029;-78
2023/08/28 03:08:42;;;;;;;0.00;0.00;;;;;;;13.01;100.00;100152.31;5002181;28;20017;-81
2023/08/28 03:11:17;;;;;;;0.00;0.00;;;;;;;13.07;100.00;100169.56;4984410;28;20041;-80
2023/08/28 03:13:42;;;;;;;0.00;0.00;;;;;;;12.97;100.00;100151.25;4986381;28;20053;-79
2023/08/28 03:16:12;;;;;;;0.00;0.00;;;;;;;12.96;100.00;100154.28;5005096;28;20456;-81
2023/08/28 03:18:39;;;;;;;0.00;0.00;;;;;;;12.90;100.00;100156.25;4987999;28;20120;-77
2023/08/28 03:21:12;;;;;;;0.00;0.00;;;;;;;12.83;100.00;100144.78;4996653;28;20038;-77
2023/08/28 03:23:38;;;;;;;0.00;0.00;;;;;;;12.84;100.00;100146.44;5012542;28;20034;-79
2023/08/28 03:26:13;;;;;;;0.00;0.00;;;;;;;12.84;100.00;100155.47;4970385;28;20042;-77
2023/08/28 03:28:39;;;;;;;0.00;0.00;;;;;;;12.68;100.00;100143.81;4986007;28;20014;-77
2023/08/28 03:31:11;;;;;;;0.00;0.00;;;;;;;12.67;100.00;100166.84;5000109;28;20026;-78
2023/08/28 03:33:39;;;;;;;0.00;0.00;;;;;;;12.52;100.00;100147.78;4965405;28;20030;-77
2023/08/28 03:36:14;;;;;;;0.00;0.00;;;;;;;12.56;100.00;100157.09;4948651;28;20420;-77
2023/08/28 03:38:39;;;;;;;0.00;0.00;;;;;;;12.56;100.00;100151.59;4987044;28;20026;-81
2023/08/28 03:41:05;;;;;;;0.00;0.00;;;;;;;12.52;100.00;100145.03;4987583;28;20073;-79
2023/08/28 03:43:30;;;;;;;0.00;0.00;;;;;;;12.59;100.00;100145.53;4991249;28;20030;-78
2023/08/28 03:45:56;;;;;;;0.00;0.00;;;;;;;12.56;100.00;100132.41;4975980;28;20037;-78
2023/08/28 03:48:26;;;;;;;0.00;0.00;;;;;;;12.77;100.00;100154.97;4980790;28;20033;-77
2023/08/28 03:51:02;;;;;;;;;;;;;;;;;;;;;
2023/08/28 03:53:27;;;;;;;0.00;0.00;;;;;;;13.12;100.00;100185.16;4982275;28;20023;-77
2023/08/28 03:55:57;;;;;;;0.00;0.00;;;;;;;13.05;100.00;100153.38;4972112;28;20032;-78
2023/08/28 03:58:40;;;;;;;0.00;0.00;;;;;;;13.15;100.00;100151.63;4978284;28;20036;-78
2023/08/28 04:01:15;;;;;;;0.00;0.00;;;;;;;13.41;100.00;100183.22;4995323;28;20453;-79
2023/08/28 04:03:41;;;;;;;0.00;0.00;;;;;;;13.46;100.00;100173.31;4941087;28;20043;-77
2023/08/28 04:06:14;;;;;;;0.00;0.00;;;;;;;13.44;100.00;100163.41;4947211;28;20043;-79
2023/08/28 04:08:39;;;;;;;0.00;0.00;;;;;;;13.43;100.00;100149.97;4970957;28;20445;-78
2023/08/28 04:11:12;;;;;;;0.00;0.00;;;;;;;13.60;100.00;100174.25;4961113;28;20035;-79
2023/08/28 04:13:38;;;;;;;0.00;0.00;;;;;;;13.54;100.00;100169.94;4959064;28;20037;-78
2023/08/28 04:16:08;;;;;;;0.00;0.00;;;;;;;13.44;100.00;100170.84;4976544;28;20030;-79
2023/08/28 04:18:34;;;;;;;0.00;0.00;;;;;;;13.33;100.00;100164.63;4950053;28;20038;-78
2023/08/28 04:21:03;;;;;;;0.00;0.00;;;;;;;13.25;100.00;100159.75;4947865;28;21423;-77
2023/08/28 04:23:29;;;;;;;0.00;0.00;;;;;;;13.29;100.00;100169.06;4960748;28;20042;-78
2023/08/28 04:26:04;;;;;;;;;;;;;;;;;;;;;
2023/08/28 04:28:32;;;;;;;0.00;0.00;;;;;;;13.27;100.00;100183.09;4963211;28;20496;-79
2023/08/28 04:33:48;;;;;;;0.00;0.00;;;;;;;13.28;100.00;100179.19;4953520;28;20451;-78
2023/08/28 04:36:13;;;;;;;0.00;0.00;;;;;;;13.10;100.00;100153.31;4975758;28;20054;-78
2023/08/28 04:38:39;;;;;;;0.00;0.00;;;;;;;13.18;100.00;100167.50;4965513;28;20041;-78
2023/08/28 04:41:07;;;;;;;0.00;0.00;;;;;;;13.42;100.00;100206.03;4965706;28;20038;-79
2023/08/28 04:43:36;;;;;;;0.00;0.00;;;;;;;13.47;100.00;100213.41;4959169;28;20026;-78
2023/08/28 04:46:11;;;;;;;;;;;;;;;;;;;;;
2023/08/28 04:48:37;;;;;;;0.00;0.00;;;;;;;13.36;100.00;100208.00;4969247;28;20032;-78
2023/08/28 04:51:04;;;;;;;0.00;0.00;;;;;;;13.28;100.00;100197.63;4965443;28;20049;-78
2023/08/28 04:53:30;;;;;;;0.00;0.00;;;;;;;13.10;100.00;100193.69;4921986;28;20026;-78
2023/08/28 04:55:55;;;;;;;0.00;0.00;;;;;;;12.95;100.00;100215.75;4954366;28;20033;-77
2023/08/28 04:58:21;;;;;;;0.00;0.00;;;;;;;12.73;100.00;100206.88;4961983;28;20437;-76
2023/08/28 05:00:46;;;;;;;0.00;0.00;;;;;;;12.59;100.00;100222.34;4947721;28;20377;-77
2023/08/28 05:03:12;;;;;;;0.00;0.00;;;;;;;12.46;100.00;100229.25;4955236;28;20057;-77
2023/08/28 05:05:37;;;;;;;0.00;0.00;;;;;;;12.22;100.00;100212.66;4965426;28;20040;-77
2023/08/28 05:08:32;;;;;;;0.00;0.00;;;;;;;12.09;100.00;100203.16;4954476;28;20038;-77
2023/08/28 05:11:04;;;;;;;0.00;0.00;;;;;;;11.94;100.00;100190.31;4992437;28;20048;-77
2023/08/28 05:13:30;;;;;;;0.00;0.00;;;;;;;11.77;100.00;100179.69;5006511;28;20113;-77
2023/08/28 05:15:58;;;;;;;0.00;0.00;;;;;;;11.70;100.00;100174.50;4994854;28;20022;-78
2023/08/28 05:18:32;;;;;;;0.00;0.00;;;;;;;11.78;100.00;100200.50;4981917;28;20129;-78
2023/08/28 05:20:58;;;;;;;0.00;0.00;;;;;;;11.73;100.00;100194.22;4985380;28;20137;-78
2023/08/28 05:23:25;;;;;;;0.00;0.00;;;;;;;11.74;100.00;100202.16;4957881;28;20552;-77
2023/08/28 05:25:56;;;;;;;0.00;0.00;;;;;;;11.63;100.00;100193.16;4985044;28;20503;-79
2023/08/28 05:28:22;;;;;;;0.00;0.00;;;;;;;11.60;100.00;100190.16;4968450;28;20120;-75
2023/08/28 05:30:47;;;;;;;0.00;0.00;;;;;;;11.72;100.00;100220.78;4998826;28;20457;-75
2023/08/28 05:33:15;;;;;;;0.00;0.00;;;;;;;11.72;100.00;100226.25;4978852;28;20026;-77
2023/08/28 05:35:42;;;;;;;0.00;0.00;;;;;;;11.73;100.00;100233.41;4980327;28;20034;-77
2023/08/28 05:38:07;;;;;;;0.00;0.00;;;;;;;11.69;100.00;100219.41;4986240;28;20022;-77
2023/08/28 05:40:33;;;;;;;0.00;0.00;;;;;;;11.82;100.00;100219.94;4980367;28;20030;-77
2023/08/28 05:42:59;;;;;;;0.00;0.00;;;;;;;11.74;100.00;100202.16;4991732;28;20029;-75
2023/08/28 05:45:25;;;;;;;0.00;0.00;;;;;;;11.91;100.00;100207.28;4964346;28;20022;-77
2023/08/28 05:47:50;;;;;;;0.00;0.00;;;;;;;12.16;100.00;100213.78;4980731;28;20033;-78
2023/08/28 05:50:18;;;;;;;0.00;0.00;;;;;;;12.48;100.00;100237.22;4983359;28;20094;-78
2023/08/28 05:52:44;;;;;;;0.00;0.00;;;;;;;12.69;100.00;100238.72;5004170;28;20112;-79
2023/08/28 05:55:09;;;;;;;0.00;0.00;;;;;;;12.81;100.00;100243.03;4982876;28;20056;-80
2023/08/28 05:57:37;;;;;;;0.00;0.00;;;;;;;12.89;100.00;100237.78;4984956;28;20381;-78
2023/08/28 06:00:14;;;;;;;0.00;0.00;;;;;;;12.87;100.00;100228.19;5002260;28;20033;-77
2023/08/28 06:02:40;;;;;;;0.00;0.00;;;;;;;12.91;100.00;100245.72;4998171;28;20050;-77
2023/08/28 06:05:06;;;;;;;0.00;0.00;;;;;;;12.86;100.00;100232.00;4982366;28;20065;-79
2023/08/28 06:07:32;;;;;;;0.00;0.00;;;;;;;13.17;100.00;100259.22;4981139;28;20031;-78
2023/08/28 06:10:00;;;;;;;0.00;0.00;;;;;;;13.24;100.00;100243.22;4982490;28;20496;-78
2023/08/28 06:12:51;;;;;;;0.00;0.00;;;;;;;13.35;100.00;100244.81;4981613;28;20031;-79
2023/08/28 06:16:02;;;;;;;0.00;0.00;;;;;;;13.36;100.00;100248.38;4979212;28;20030;-80
2023/08/28 06:18:30;;;;;;;0.00;0.00;;;;;;;13.34;100.00;100234.94;4973334;28;20085;-80
2023/08/28 06:21:40;;;;;;;;;;;;;;;;;;;;;
2023/08/28 06:24:52;;;;;;;;;;;;;;;;;;;;;
2023/08/28 06:28:26;;;;;;;;;;;;;;;;;;;;;
2023/08/28 06:31:18;;;;;;;;;;;;;;;;;;;;;
2023/08/28 06:33:57;;;;;;;0.00;0.00;;;;;;;15.21;97.75;100281.78;4983046;28;20022;-79
2023/08/28 06:36:32;;;;;;;0.00;0.00;;;;;;;15.24;96.14;100247.31;4941280;28;20374;-79
2023/08/28 06:39:38;;;;;;;;;;;;;;;;;;;;;
2023/08/28 06:42:33;;;;;;;0.00;0.00;;;;;;;15.87;94.23;100287.28;4969307;28;20404;-80
2023/08/28 06:45:09;;;;;;;0.00;0.00;;;;;;;15.83;93.37;100265.03;4947569;28;20046;-77
2023/08/28 06:48:01;;;;;;;0.00;0.00;;;;;;;15.73;92.70;100243.13;4968304;28;20023;-78
2023/08/28 06:50:46;;;;;;;0.00;0.00;;;;;;;15.95;92.37;100255.44;4961636;28;21465;-77
2023/08/28 06:53:27;;;;;;;;;;;;;;;;;;;;;
2023/08/28 06:55:59;;;;;;;0.00;0.00;;;;;;;16.55;89.69;100258.00;4984750;28;20392;-77
2023/08/28 07:01:59;;;;;;;;;;;;;;;17.12;87.65;100300.94;4962167;28;20034;-78
2023/08/28 07:04:32;;;;;;;0.00;0.00;;;;;;;17.22;87.54;100292.38;4959000;28;19922;-77
2023/08/28 07:07:18;;;;;;;0.00;0.00;;;;;;;17.38;86.20;100294.78;4983351;28;20022;-77
2023/08/28 07:09:56;;;;;;;;;;;;;;;;;;;;;
2023/08/28 07:12:38;;;;;;;0.00;0.00;;;;;;;17.72;85.08;100298.88;4998284;28;20025;-78
2023/08/28 07:15:13;;;;;;;0.00;0.00;;;;;;;17.72;84.61;100287.81;4986976;28;20071;-76
2023/08/28 07:17:46;;;;;;;0.00;0.00;;;;;;;17.77;84.50;100282.13;4980036;28;20046;-77
2023/08/28 07:20:22;;;;;;;;;;;;;;;;;;;;;
2023/08/28 07:22:55;;;;;;;0.00;0.00;;;;;;;17.99;82.95;100294.31;4998169;28;20030;-78
2023/08/28 07:25:22;;;;;;;0.00;0.00;;;;;;;18.13;82.82;100300.56;5000197;28;20490;-78
2023/08/28 07:27:48;;;;;;;0.00;0.00;;;;;;;18.29;81.87;100301.72;4988431;28;20048;-77
2023/08/28 07:30:29;;;;;;;0.00;0.00;;;;;;;18.11;81.51;100272.41;4969713;28;20480;-77
2023/08/28 07:32:59;;;;;;;0.00;0.00;;;;;;;18.04;81.35;100278.38;4995372;28;20045;-76
2023/08/28 07:39:23;;;;;;;0.00;0.00;;;;;;;17.46;82.56;100302.28;4990738;28;20048;-80
2023/08/28 07:42:01;;;;;;;0.00;0.00;;;;;;;17.02;82.56;100271.59;4993923;28;20151;-77
2023/08/28 07:44:34;;;;;;;0.00;0.00;;;;;;;16.99;82.87;100279.69;4999034;28;20169;-76
2023/08/28 07:47:03;;;;;;;0.00;0.00;;;;;;;16.91;83.25;100282.06;4985215;28;20105;-78
2023/08/28 07:50:11;;;;;;;0.00;0.00;;;;;;;17.12;83.10;100297.34;5001136;28;20054;-78
2023/08/28 07:52:37;;;;;;;0.00;0.00;;;;;;;16.98;82.55;100286.34;4998263;28;20034;-77
2023/08/28 07:55:34;;;;;;;0.00;0.00;;;;;;;16.77;82.15;100250.91;4981425;28;20690;-77
2023/08/28 07:58:10;;;;;;;0.00;0.00;;;;;;;16.91;82.41;100270.22;4982433;28;20045;-77
2023/08/28 08:01:35;;;;;;;;;;;;;;;;;;;;;
2023/08/28 08:04:02;;;;;;;0.00;0.00;;;;;;;17.03;81.39;100272.44;4984883;28;20479;-77
2023/08/28 08:06:51;;;;;;;0.00;0.00;;;;;;;17.40;80.72;100303.56;4970875;28;20392;-76
2023/08/28 08:09:17;;;;;;;0.00;0.00;;;;;;;17.36;80.01;100275.75;4970603;28;20520;-77
2023/08/28 08:11:50;;;;;;;0.00;0.00;;;;;;;17.82;78.64;100276.47;4989641;28;20065;-76
2023/08/28 08:14:19;;;;;;;0.00;0.00;;;;;;;18.56;76.77;100283.25;4982557;28;20034;-75
2023/08/28 08:17:02;;;;;;;0.00;0.00;;;;;;;19.23;74.05;100297.81;4987545;28;20054;-77
2023/08/28 08:19:41;;;;;;;;;;;;;;;;;;;;;
2023/08/28 08:22:35;;;;;;;0.00;0.00;;;;;;;19.69;72.18;100306.53;4993251;28;20018;-78
2023/08/28 08:25:25;;;;;;;0.00;0.00;;;;;;;20.47;70.39;100296.25;5000810;28;20045;-77
2023/08/28 08:27:51;;;;;;;0.00;0.00;;;;;;;21.99;66.21;100313.75;4969146;28;20041;-76
2023/08/28 08:30:16;;;;;;;0.00;0.00;;;;;;;24.62;58.97;100332.41;4986585;28;20026;-77
2023/08/28 08:32:46;;;;;;;0.00;0.00;;;;;;;27.57;48.96;100309.47;4967133;28;20029;-76
2023/08/28 08:35:12;;;;;;;0.00;0.00;;;;;;;27.07;47.52;100322.88;4966347;28;20053;-77
2023/08/28 08:37:46;;;;;;;0.00;0.00;;;;;;;25.75;50.30;100331.59;4980370;28;20109;-77
2023/08/28 08:40:34;;;;;;;;;;;;;;;;;;;;;
2023/08/28 08:43:00;;;;;;;0.00;0.00;;;;;;;23.57;54.74;100323.34;4996755;28;20426;-76
2023/08/28 08:45:44;;;;;;;0.00;0.00;;;;;;;23.53;55.04;100346.38;4955887;28;20037;-77
2023/08/28 08:48:37;;;;;;;0.00;0.00;;;;;;;23.51;55.48;100320.84;4988588;28;20026;-77
2023/08/28 08:51:14;;;;;;;0.00;0.00;;;;;;;23.41;55.55;100349.25;4995058;28;20065;-77
2023/08/28 08:54:17;;;;;;;0.00;0.00;;;;;;;22.87;55.88;100330.09;4999932;28;20025;-78
2023/08/28 08:56:50;;;;;;;0.00;0.00;;;;;;;22.40;55.91;100326.69;4983755;28;20026;-76
2023/08/28 08:59:24;;;;;;;0.00;0.00;;;;;;;22.01;55.05;100309.47;5003423;28;20026;-77
2023/08/28 09:01:59;;;;;;;0.00;0.00;;;;;;;21.96;55.48;100331.94;5004766;28;20048;-77
2023/08/28 09:04:34;;;;;;;0.00;0.00;;;;;;;22.00;55.05;100321.75;4992802;28;20052;-77
2023/08/28 09:07:05;;;;;;;0.00;0.00;;;;;;;22.34;54.29;100347.56;4989452;28;20801;-78
2023/08/28 09:09:32;;;;;;;0.00;0.00;;;;;;;22.21;54.59;100338.38;4987010;28;20056;-77
2023/08/28 09:11:58;;;;;;;0.00;0.00;;;;;;;22.06;54.07;100348.19;4997025;28;20779;-78
2023/08/28 09:14:24;;;;;;;0.00;0.00;;;;;;;21.92;53.96;100337.41;4980758;28;20037;-78
2023/08/28 09:16:49;;;;;;;0.00;0.00;;;;;;;22.18;52.98;100338.22;4993400;28;20030;-77
2023/08/28 09:19:15;;;;;;;0.00;0.00;;;;;;;22.64;52.18;100345.34;4978689;28;20076;-80
2023/08/28 09:21:47;;;;;;;0.00;0.00;;;;;;;23.83;51.44;100326.47;4979409;28;20029;-79
2023/08/28 09:24:23;;;;;;;0.00;0.00;;;;;;;26.71;46.34;100336.41;5007139;28;20053;-76
2023/08/28 09:27:04;;;;;;;0.00;0.00;;;;;;;29.58;39.42;100343.81;4994681;28;20030;-76
2023/08/28 09:29:29;;;;;;;0.00;0.00;;;;;;;28.98;39.09;100333.88;4982217;28;20084;-81
2023/08/28 09:32:03;;;;;;;0.00;0.00;;;;;;;28.65;39.45;100316.03;4999798;28;20026;-78
2023/08/28 09:34:39;;;;;;;0.00;0.00;;;;;;;29.83;37.87;100337.41;4980467;28;20026;-76
2023/08/28 09:37:14;;;;;;;0.00;0.00;;;;;;;33.97;33.55;100338.69;4983673;28;20018;-78
2023/08/28 09:39:49;;;;;;;0.00;0.00;;;;;;;38.61;27.53;100333.88;5004640;28;20065;-80
2023/08/28 09:42:15;;;;;;;0.00;0.00;;;;;;;42.55;23.64;100311.31;4983917;28;20488;-76
2023/08/28 09:44:49;;;;;;;0.00;0.00;;;;;;;45.18;20.84;100315.38;4979482;28;20029;-79
2023/08/28 09:47:20;;;;;;;0.00;0.00;;;;;;;46.03;19.05;100304.44;4990461;28;20030;-76
2023/08/28 09:49:46;;;;;;;0.00;0.00;;;;;;;43.03;19.63;100312.47;4997376;28;20514;-75
2023/08/28 09:52:12;;;;;;;0.00;0.00;;;;;;;39.50;22.47;100315.47;4979583;28;20029;-75
2023/08/28 09:54:42;;;;;;;0.00;0.00;;;;;;;36.49;25.39;100287.88;4986129;28;20028;-78
2023/08/28 09:57:17;;;;;;;0.00;0.00;;;;;;;34.33;27.38;100304.88;4997978;28;20033;-77
2023/08/28 09:59:43;;;;;;;0.00;0.00;;;;;;;32.57;28.53;100304.44;4991262;28;20034;-76
2023/08/28 10:02:18;;;;;;;0.00;0.00;;;;;;;31.32;30.16;100283.16;4987155;28;20053;-80
2023/08/28 10:05:03;;;;;;;0.00;0.00;;;;;;;30.38;30.98;100299.56;4995372;28;20068;-78
2023/08/28 10:07:57;;;;;;;0.00;0.00;;;;;;;30.70;32.10;100298.72;4994954;28;20484;-79
2023/08/28 10:10:55;;;;;;;;;;;;;;;;;;;;;
2023/08/28 10:13:22;;;;;;;0.00;0.00;;;;;;;31.54;30.81;100285.88;5013747;28;20034;-75
2023/08/28 10:16:10;;;;;;;0.00;0.00;;;;;;;29.87;31.83;100304.41;5008654;28;20025;-75
2023/08/28 10:18:58;;;;;;;0.00;0.00;;;;;;;28.08;33.40;100287.47;5014877;28;20021;-76
2023/08/28 10:21:25;;;;;;;0.00;0.00;;;;;;;26.87;35.35;100286.56;5018250;28;20028;-80
2023/08/28 10:23:58;;;;;;;0.00;0.00;;;;;;;26.02;36.55;100284.91;5003792;28;20033;-77
2023/08/28 10:26:29;;;;;;;0.00;0.00;;;;;;;25.49;38.05;100293.13;5026839;28;20758;-76
2023/08/28 10:28:58;;;;;;;0.00;0.00;;;;;;;27.15;38.61;100288.09;5013294;28;20025;-75
2023/08/28 10:31:25;;;;;;;0.00;0.00;;;;;;;30.02;34.49;100291.16;4983076;28;20033;-75
2023/08/28 10:33:53;;;;;;;0.00;0.00;;;;;;;31.35;33.18;100284.34;5011252;28;20084;-76
2023/08/28 10:36:23;;;;;;;0.00;0.00;;;;;;;36.47;28.65;100298.94;5003838;28;20036;-75
2023/08/28 10:38:51;;;;;;;0.00;0.00;;;;;;;40.74;23.71;100304.09;5013357;28;20079;-73
2023/08/28 10:41:20;;;;;;;0.00;0.00;;;;;;;42.77;21.68;100304.41;5012870;28;20554;-77
2023/08/28 10:44:13;;;;;;;0.00;0.00;;;;;;;41.64;21.68;100322.06;5018358;28;20107;-76
2023/08/28 10:46:40;;;;;;;0.00;0.00;;;;;;;39.64;23.00;100321.91;5002415;28;20115;-75
2023/08/28 10:49:13;;;;;;;0.00;0.00;;;;;;;37.52;23.74;100305.28;5005194;28;20120;-75
2023/08/28 10:51:39;;;;;;;0.00;0.00;;;;;;;35.58;25.71;100317.75;4995680;28;20030;-73
2023/08/28 10:54:11;;;;;;;0.00;0.00;;;;;;;33.52;27.35;100302.88;5027853;28;20041;-76
2023/08/28 10:56:39;;;;;;;0.00;0.00;;;;;;;32.00;28.94;100298.06;5001346;28;20033;-75
2023/08/28 10:59:24;;;;;;;0.00;0.00;;;;;;;30.37;30.54;100314.88;4980435;28;20021;-79
2023/08/28 11:01:57;;;;;;;0.00;0.00;;;;;;;28.89;31.80;100302.47;5013535;28;20029;-76
2023/08/28 11:04:24;;;;;;;;;;;;;;;28.24;33.41;100318.94;5012040;28;20044;-75
2023/08/28 11:06:51;;;;;;;0.00;0.00;;;;;;;27.82;34.08;100320.13;5004105;28;19941;-75
2023/08/28 11:09:29;;;;;;;0.00;0.00;;;;;;;27.55;34.65;100320.25;4998036;28;20061;-76
2023/08/28 11:11:57;;;;;;;0.00;0.00;;;;;;;27.68;34.51;100318.78;5027365;28;20079;-78
2023/08/28 11:14:30;;;;;;;0.00;0.00;;;;;;;27.96;34.40;100314.63;4999307;28;20033;-77
2023/08/28 11:17:05;;;;;;;0.00;0.00;;;;;;;28.47;33.38;100315.06;5002737;28;20073;-76
2023/08/28 11:19:53;;;;;;;0.00;0.00;;;;;;;28.95;33.35;100316.97;4990164;28;20075;-76
2023/08/28 11:22:34;;;;;;;0.00;0.00;;;;;;;28.27;34.11;100312.53;4993387;28;20425;-75
2023/08/28 11:25:03;;;;;;;0.00;0.00;;;;;;;27.29;35.06;100293.06;5024220;28;20021;-76
2023/08/28 11:27:40;;;;;;;0.00;0.00;;;;;;;26.73;36.54;100314.41;5008599;28;20033;-76
2023/08/28 11:30:10;;;;;;;0.00;0.00;;;;;;;26.19;37.80;100294.75;5019269;28;20089;-75
2023/08/28 11:32:41;;;;;;;0.00;0.00;;;;;;;26.53;37.98;100292.06;5008726;28;20033;-76
2023/08/28 11:35:09;;;;;;;0.00;0.00;;;;;;;27.25;37.17;100293.03;5022073;28;20048;-77
2023/08/28 11:37:41;;;;;;;0.00;0.00;;;;;;;28.93;35.99;100297.69;5003996;28;20042;-76
2023/08/28 11:40:08;;;;;;;0.00;0.00;;;;;;;32.72;32.53;100297.41;5003639;28;20025;-76
2023/08/28 11:42:35;;;;;;;0.00;0.00;;;;;;;38.44;26.05;100310.44;4992654;28;20400;-76
2023/08/28 11:45:04;;;;;;;0.00;0.00;;;;;;;41.05;22.74;100299.44;5003986;28;20194;-76
2023/08/28 11:47:32;;;;;;;0.00;0.00;;;;;;;42.54;19.61;100303.97;4991136;28;20044;-75
2023/08/28 11:49:58;;;;;;;0.00;0.00;;;;;;;44.20;18.47;100306.16;4995902;28;20025;-76
2023/08/28 11:52:25;;;;;;;0.00;0.00;;;;;;;48.16;16.44;100312.25;5013847;28;20025;-76
2023/08/28 11:54:52;;;;;;;0.00;0.00;;;;;;;51.35;14.06;100297.50;5030646;28;20108;-76
2023/08/28 11:57:19;;;;;;;0.00;0.00;;;;;;;51.04;14.17;100299.88;5018696;28;20104;-77
2023/08/28 11:59:49;;;;;;;0.00;0.00;;;;;;;48.32;14.63;100311.34;5031905;28;20029;-77
2023/08/28 12:02:15;;;;;;;0.00;0.00;;;;;;;43.32;17.37;100311.66;5013024;28;20030;-75
2023/08/28 12:04:42;;;;;;;0.00;0.00;;;;;;;39.74;19.62;100295.69;5005121;28;20116;-77
2023/08/28 12:07:26;;;;;;;0.00;0.00;;;;;;;39.62;21.03;100306.00;5011428;28;20080;-76
2023/08/28 12:09:55;;;;;;;0.00;0.00;;;;;;;44.80;18.56;100282.75;5012176;28;20036;-77
2023/08/28 12:12:22;;;;;;;0.00;0.00;;;;;;;49.75;12.94;100280.72;5010889;28;20064;-76
2023/08/28 12:14:53;;;;;;;0.00;0.00;;;;;;;49.24;12.54;100303.66;5004553;28;20029;-76
2023/08/28 12:17:27;;;;;;;0.00;0.00;;;;;;;45.17;15.13;100270.53;4989897;28;20108;-77
2023/08/28 12:20:01;;;;;;;0.00;0.00;;;;;;;42.99;16.65;100274.47;4982747;28;20392;-76